sensor_id;sensor_type;location;lat;lon;timestamp;pressure;altitude;pressure_sealevel;temperature;humidity
78932;BME280;68331;53.362;55.932;2023-04-12T00:02:17;100456.16;;;1.99;47.50
78932;BME280;68331;53.362;55.932;2023-04-12T00:04:43;100463.13;;;2.03;47.26
78932;BME280;68331;53.362;55.932;2023-04-12T00:07:09;100457.94;;;2.03;47.35
78932;BME280;68331;53.362;55.932;2023-04-12T00:09:36;100467.50;;;2.06;47.21
78932;BME280;68331;53.362;55.932;2023-04-12T00:12:02;100455.38;;;2.06;47.36
78932;BME280;68331;53.362;55.932;2023-04-12T00:14:29;100454.47;;;2.03;47.41
78932;BME280;68331;53.362;55.932;2023-04-12T00:16:55;100459.56;;;1.97;47.78
78932;BME280;68331;53.362;55.932;2023-04-12T00:19:21;100459.53;;;1.94;47.51
78932;BME280;68331;53.362;55.932;2023-04-12T00:21:50;100465.59;;;1.93;47.80
78932;BME280;68331;53.362;55.932;2023-04-12T00:24:17;100458.69;;;1.95;47.92
78932;BME280;68331;53.362;55.932;2023-04-12T00:26:44;100454.34;;;1.92;47.87
78932;BME280;68331;53.362;55.932;2023-04-12T00:29:10;100450.00;;;1.93;47.63
78932;BME280;68331;53.362;55.932;2023-04-12T00:31:36;100445.66;;;1.92;47.92
78932;BME280;68331;53.362;55.932;2023-04-12T00:34:03;100449.09;;;1.91;48.02
78932;BME280;68331;53.362;55.932;2023-04-12T00:36:29;100458.63;;;1.90;47.99
78932;BME280;68331;53.362;55.932;2023-04-12T00:38:55;100462.00;;;1.84;47.88
78932;BME280;68331;53.362;55.932;2023-04-12T00:41:21;100457.69;;;1.83;48.31
78932;BME280;68331;53.362;55.932;2023-04-12T00:43:50;100452.44;;;1.79;48.29
78932;BME280;68331;53.362;55.932;2023-04-12T00:46:16;100456.75;;;1.80;48.35
78932;BME280;68331;53.362;55.932;2023-04-12T00:48:45;100458.38;;;1.70;48.63
78932;BME280;68331;53.362;55.932;2023-04-12T00:51:12;100460.84;;;1.62;48.93
78932;BME280;68331;53.362;55.932;2023-04-12T00:53:39;100456.53;;;1.63;49.01
78932;BME280;68331;53.362;55.932;2023-04-12T00:56:06;100458.25;;;1.62;48.83
78932;BME280;68331;53.362;55.932;2023-04-12T00:58:33;100452.16;;;1.60;49.38
78932;BME280;68331;53.362;55.932;2023-04-12T01:00:59;100448.59;;;1.54;49.23
78932;BME280;68331;53.362;55.932;2023-04-12T01:03:25;100443.38;;;1.52;49.63
78932;BME280;68331;53.362;55.932;2023-04-12T01:06:13;100430.28;;;1.46;49.77
78932;BME280;68331;53.362;55.932;2023-04-12T01:08:53;100446.00;;;1.54;49.74
78932;BME280;68331;53.362;55.932;2023-04-12T01:14:17;100445.97;;;1.52;49.57
78932;BME280;68331;53.362;55.932;2023-04-12T01:16:49;100443.34;;;1.51;49.70
78932;BME280;68331;53.362;55.932;2023-04-12T01:27:44;100441.53;;;1.47;49.86
78932;BME280;68331;53.362;55.932;2023-04-12T01:30:13;100431.09;;;1.42;50.10
78932;BME280;68331;53.362;55.932;2023-04-12T01:32:47;100441.44;;;1.39;50.33
78932;BME280;68331;53.362;55.932;2023-04-12T01:35:20;100438.75;;;1.31;50.73
78932;BME280;68331;53.362;55.932;2023-04-12T01:37:47;100440.47;;;1.31;50.72
78932;BME280;68331;53.362;55.932;2023-04-12T01:40:17;100439.66;;;1.35;50.81
78932;BME280;68331;53.362;55.932;2023-04-12T01:42:44;100440.53;;;1.37;50.79
78932;BME280;68331;53.362;55.932;2023-04-12T01:45:11;100435.38;;;1.40;50.69
78932;BME280;68331;53.362;55.932;2023-04-12T01:47:37;100444.16;;;1.47;50.51
78932;BME280;68331;53.362;55.932;2023-04-12T01:52:42;100444.16;;;1.47;50.46
78932;BME280;68331;53.362;55.932;2023-04-12T01:55:11;100446.78;;;1.50;50.66
78932;BME280;68331;53.362;55.932;2023-04-12T01:57:40;100445.97;;;1.51;50.49
78932;BME280;68331;53.362;55.932;2023-04-12T02:00:09;100448.59;;;1.54;50.63
78932;BME280;68331;53.362;55.932;2023-04-12T02:02:39;100452.97;;;1.56;50.42
78932;BME280;68331;53.362;55.932;2023-04-12T02:05:08;100457.38;;;1.60;50.42
78932;BME280;68331;53.362;55.932;2023-04-12T02:07:34;100450.47;;;1.64;50.11
78932;BME280;68331;53.362;55.932;2023-04-12T02:10:02;100455.81;;;1.73;50.05
78932;BME280;68331;53.362;55.932;2023-04-12T02:12:28;100452.38;;;1.76;50.31
78932;BME280;68331;53.362;55.932;2023-04-12T02:14:55;100455.06;;;1.83;50.06
78932;BME280;68331;53.362;55.932;2023-04-12T02:17:21;100450.88;;;1.93;49.90
78932;BME280;68331;53.362;55.932;2023-04-12T02:19:48;100462.25;;;2.03;49.31
78932;BME280;68331;53.362;55.932;2023-04-12T02:22:14;100451.97;;;2.14;49.42
78932;BME280;68331;53.362;55.932;2023-04-12T02:24:41;100458.19;;;2.25;49.02
78932;BME280;68331;53.362;55.932;2023-04-12T02:27:07;100455.75;;;2.37;49.08
78932;BME280;68331;53.362;55.932;2023-04-12T02:29:35;100456.69;;;2.45;48.62
78932;BME280;68331;53.362;55.932;2023-04-12T02:32:01;100464.59;;;2.53;48.71
78932;BME280;68331;53.362;55.932;2023-04-12T02:34:28;100454.22;;;2.58;48.79
78932;BME280;68331;53.362;55.932;2023-04-12T02:37:06;100443.91;;;2.68;48.42
78932;BME280;68331;53.362;55.932;2023-04-12T02:39:33;100452.59;;;3.83;46.01
78932;BME280;68331;53.362;55.932;2023-04-12T02:42:01;100448.59;;;5.14;43.13
78932;BME280;68331;53.362;55.932;2023-04-12T02:44:30;100442.41;;;5.58;41.99
78932;BME280;68331;53.362;55.932;2023-04-12T02:47:09;100435.44;;;5.57;41.51
78932;BME280;68331;53.362;55.932;2023-04-12T02:49:36;100445.91;;;5.54;41.76
78932;BME280;68331;53.362;55.932;2023-04-12T02:52:02;100447.63;;;5.61;41.87
78932;BME280;68331;53.362;55.932;2023-04-12T02:54:37;100448.50;;;5.72;41.58
78932;BME280;68331;53.362;55.932;2023-04-12T02:57:05;100456.38;;;5.57;41.93
78932;BME280;68331;53.362;55.932;2023-04-12T02:59:41;100454.66;;;5.41;42.27
78932;BME280;68331;53.362;55.932;2023-04-12T03:02:15;100452.03;;;5.45;42.24
78932;BME280;68331;53.362;55.932;2023-04-12T03:04:42;100452.88;;;5.58;41.84
78932;BME280;68331;53.362;55.932;2023-04-12T03:07:19;100446.72;;;5.83;41.51
78932;BME280;68331;53.362;55.932;2023-04-12T03:09:49;100453.69;;;6.00;41.01
78932;BME280;68331;53.362;55.932;2023-04-12T03:12:17;100456.31;;;5.89;40.85
78932;BME280;68331;53.362;55.932;2023-04-12T03:14:54;100461.56;;;6.00;41.04
78932;BME280;68331;53.362;55.932;2023-04-12T03:17:23;100453.63;;;6.09;40.76
78932;BME280;68331;53.362;55.932;2023-04-12T03:19:50;100458.00;;;6.13;40.84
78932;BME280;68331;53.362;55.932;2023-04-12T03:22:19;100460.47;;;6.45;40.40
78932;BME280;68331;53.362;55.932;2023-04-12T03:24:50;100444.78;;;7.55;38.34
78932;BME280;68331;53.362;55.932;2023-04-12T03:27:19;100460.94;;;8.01;37.28
78932;BME280;68331;53.362;55.932;2023-04-12T03:29:45;100460.63;;;8.27;36.60
78932;BME280;68331;53.362;55.932;2023-04-12T03:32:11;100460.00;;;8.05;36.69
78932;BME280;68331;53.362;55.932;2023-04-12T03:34:37;100467.66;;;8.25;36.60
78932;BME280;68331;53.362;55.932;2023-04-12T03:37:10;100470.19;;;8.33;36.26
78932;BME280;68331;53.362;55.932;2023-04-12T03:39:39;100461.53;;;9.44;35.01
78932;BME280;68331;53.362;55.932;2023-04-12T03:42:07;100460.75;;;12.12;31.25
78932;BME280;68331;53.362;55.932;2023-04-12T03:44:33;100452.03;;;14.01;27.76
78932;BME280;68331;53.362;55.932;2023-04-12T03:47:05;100453.59;;;14.08;27.47
78932;BME280;68331;53.362;55.932;2023-04-12T03:49:34;100444.78;;;15.00;26.27
78932;BME280;68331;53.362;55.932;2023-04-12T03:52:05;100443.06;;;15.82;25.19
78932;BME280;68331;53.362;55.932;2023-04-12T03:54:33;100430.22;;;17.41;23.06
78932;BME280;68331;53.362;55.932;2023-04-12T03:57:04;100424.13;;;17.39;22.75
78932;BME280;68331;53.362;55.932;2023-04-12T03:59:37;100437.22;;;16.90;23.08
78932;BME280;68331;53.362;55.932;2023-04-12T04:02:04;100426.22;;;17.67;22.25
78932;BME280;68331;53.362;55.932;2023-04-12T04:04:33;100431.09;;;18.27;21.60
78932;BME280;68331;53.362;55.932;2023-04-12T04:07:04;100428.13;;;17.13;22.54
78932;BME280;68331;53.362;55.932;2023-04-12T04:09:38;100427.50;;;15.73;24.55
78932;BME280;68331;53.362;55.932;2023-04-12T04:12:04;100426.78;;;15.06;25.06
78932;BME280;68331;53.362;55.932;2023-04-12T04:14:31;100432.78;;;13.72;26.97
78932;BME280;68331;53.362;55.932;2023-04-12T04:17:01;100439.28;;;12.52;28.68
78932;BME280;68331;53.362;55.932;2023-04-12T04:19:27;100436.84;;;14.06;27.31
78932;BME280;68331;53.362;55.932;2023-04-12T04:21:53;100439.47;;;16.03;24.79
78932;BME280;68331;53.362;55.932;2023-04-12T04:24:21;100426.06;;;17.71;22.27
78932;BME280;68331;53.362;55.932;2023-04-12T04:26:52;100433.22;;;18.54;21.37
78932;BME280;68331;53.362;55.932;2023-04-12T04:29:24;100420.81;;;19.61;20.73
78932;BME280;68331;53.362;55.932;2023-04-12T04:31:53;100419.69;;;18.89;20.85
78932;BME280;68331;53.362;55.932;2023-04-12T04:34:19;100421.53;;;17.20;22.47
78932;BME280;68331;53.362;55.932;2023-04-12T04:36:48;100433.13;;;15.67;24.86
78932;BME280;68331;53.362;55.932;2023-04-12T04:39:21;100427.41;;;14.91;25.87
78932;BME280;68331;53.362;55.932;2023-04-12T04:41:48;100422.94;;;15.76;24.95
78932;BME280;68331;53.362;55.932;2023-04-12T04:44:28;100422.50;;;16.06;24.58
78932;BME280;68331;53.362;55.932;2023-04-12T04:46:55;100425.28;;;16.80;23.87
78932;BME280;68331;53.362;55.932;2023-04-12T04:49:24;100426.72;;;17.58;22.85
78932;BME280;68331;53.362;55.932;2023-04-12T04:51:50;100419.06;;;16.99;23.53
78932;BME280;68331;53.362;55.932;2023-04-12T04:54:17;100423.91;;;18.93;21.73
78932;BME280;68331;53.362;55.932;2023-04-12T04:56:43;100425.91;;;20.80;19.59
78932;BME280;68331;53.362;55.932;2023-04-12T04:59:12;100423.41;;;23.56;17.03
78932;BME280;68331;53.362;55.932;2023-04-12T05:01:38;100415.34;;;25.67;14.88
78932;BME280;68331;53.362;55.932;2023-04-12T05:04:06;100415.16;;;26.31;14.22
78932;BME280;68331;53.362;55.932;2023-04-12T05:06:32;100413.22;;;27.90;13.04
78932;BME280;68331;53.362;55.932;2023-04-12T05:09:15;100417.84;;;28.55;12.85
78932;BME280;68331;53.362;55.932;2023-04-12T05:11:47;100422.28;;;26.63;13.75
78932;BME280;68331;53.362;55.932;2023-04-12T05:14:13;100422.16;;;23.96;15.39
78932;BME280;68331;53.362;55.932;2023-04-12T05:16:39;100418.34;;;21.53;17.97
78932;BME280;68331;53.362;55.932;2023-04-12T05:19:07;100425.78;;;20.40;19.08
78932;BME280;68331;53.362;55.932;2023-04-12T05:21:34;100425.38;;;20.46;19.39
78932;BME280;68331;53.362;55.932;2023-04-12T05:24:00;100414.84;;;21.91;18.12
78932;BME280;68331;53.362;55.932;2023-04-12T05:26:26;100416.09;;;22.62;17.53
78932;BME280;68331;53.362;55.932;2023-04-12T05:28:54;100415.66;;;22.56;17.67
78932;BME280;68331;53.362;55.932;2023-04-12T05:31:20;100413.34;;;22.13;17.95
78932;BME280;68331;53.362;55.932;2023-04-12T05:33:47;100416.53;;;23.17;17.06
78932;BME280;68331;53.362;55.932;2023-04-12T05:36:14;100414.88;;;24.31;16.05
78932;BME280;68331;53.362;55.932;2023-04-12T05:38:40;100415.97;;;25.06;15.36
78932;BME280;68331;53.362;55.932;2023-04-12T05:41:11;100419.13;;;23.54;16.39
78932;BME280;68331;53.362;55.932;2023-04-12T05:43:38;100419.47;;;21.64;18.13
78932;BME280;68331;53.362;55.932;2023-04-12T05:46:06;100422.03;;;20.98;19.44
78932;BME280;68331;53.362;55.932;2023-04-12T05:48:36;100418.47;;;20.71;19.58
78932;BME280;68331;53.362;55.932;2023-04-12T05:51:02;100413.16;;;21.38;18.94
78932;BME280;68331;53.362;55.932;2023-04-12T05:53:30;100405.59;;;21.30;18.39
78932;BME280;68331;53.362;55.932;2023-04-12T05:56:00;100397.69;;;20.74;18.91
78932;BME280;68331;53.362;55.932;2023-04-12T05:58:27;100398.75;;;20.99;18.31
78932;BME280;68331;53.362;55.932;2023-04-12T06:00:54;100403.66;;;21.97;17.73
78932;BME280;68331;53.362;55.932;2023-04-12T06:03:21;100393.88;;;24.01;16.07
78932;BME280;68331;53.362;55.932;2023-04-12T06:05:51;100395.94;;;26.04;13.78
78932;BME280;68331;53.362;55.932;2023-04-12T06:08:18;100391.09;;;26.69;12.99
78932;BME280;68331;53.362;55.932;2023-04-12T06:10:44;100394.56;;;28.24;11.92
78932;BME280;68331;53.362;55.932;2023-04-12T06:13:11;100373.00;;;30.70;10.69
78932;BME280;68331;53.362;55.932;2023-04-12T06:15:40;100375.53;;;33.21;8.77
78932;BME280;68331;53.362;55.932;2023-04-12T06:18:08;100366.34;;;35.43;7.26
78932;BME280;68331;53.362;55.932;2023-04-12T06:20:38;100366.75;;;36.92;6.21
78932;BME280;68331;53.362;55.932;2023-04-12T06:23:05;100362.81;;;38.07;5.34
78932;BME280;68331;53.362;55.932;2023-04-12T06:25:32;100371.63;;;38.81;5.03
78932;BME280;68331;53.362;55.932;2023-04-12T06:27:59;100373.56;;;38.74;5.01
78932;BME280;68331;53.362;55.932;2023-04-12T06:30:25;100368.28;;;39.11;4.84
78932;BME280;68331;53.362;55.932;2023-04-12T06:32:52;100371.19;;;40.16;4.07
78932;BME280;68331;53.362;55.932;2023-04-12T06:35:18;100368.06;;;40.79;3.92
78932;BME280;68331;53.362;55.932;2023-04-12T06:37:46;100370.28;;;40.22;4.02
78932;BME280;68331;53.362;55.932;2023-04-12T06:40:12;100369.00;;;40.73;3.82
78932;BME280;68331;53.362;55.932;2023-04-12T06:42:38;100369.56;;;40.63;3.56
78932;BME280;68331;53.362;55.932;2023-04-12T06:45:04;100364.16;;;40.99;3.26
78932;BME280;68331;53.362;55.932;2023-04-12T06:47:31;100365.97;;;40.63;3.81
78932;BME280;68331;53.362;55.932;2023-04-12T06:49:57;100363.72;;;40.83;3.48
78932;BME280;68331;53.362;55.932;2023-04-12T06:52:24;100369.72;;;40.50;3.38
78932;BME280;68331;53.362;55.932;2023-04-12T06:54:51;100358.31;;;39.60;3.94
78932;BME280;68331;53.362;55.932;2023-04-12T06:57:17;100357.94;;;38.99;3.96
78932;BME280;68331;53.362;55.932;2023-04-12T06:59:44;100356.69;;;37.79;4.60
78932;BME280;68331;53.362;55.932;2023-04-12T07:02:10;100342.69;;;37.14;5.03
78932;BME280;68331;53.362;55.932;2023-04-12T07:04:36;100349.28;;;37.39;4.69
78932;BME280;68331;53.362;55.932;2023-04-12T07:07:02;100346.09;;;37.16;4.61
78932;BME280;68331;53.362;55.932;2023-04-12T07:09:31;100341.34;;;36.70;4.82
78932;BME280;68331;53.362;55.932;2023-04-12T07:11:59;100346.19;;;35.57;5.03
78932;BME280;68331;53.362;55.932;2023-04-12T07:14:25;100346.59;;;33.49;5.82
78932;BME280;68331;53.362;55.932;2023-04-12T07:16:51;100344.31;;;30.42;7.31
78932;BME280;68331;53.362;55.932;2023-04-12T07:19:17;100344.66;;;26.83;9.42
78932;BME280;68331;53.362;55.932;2023-04-12T07:21:43;100351.00;;;24.87;10.90
78932;BME280;68331;53.362;55.932;2023-04-12T07:24:09;100351.19;;;23.15;12.40
78932;BME280;68331;53.362;55.932;2023-04-12T07:26:36;100357.66;;;22.27;12.91
78932;BME280;68331;53.362;55.932;2023-04-12T07:29:02;100354.81;;;21.67;13.38
78932;BME280;68331;53.362;55.932;2023-04-12T07:31:29;100356.16;;;20.94;14.17
78932;BME280;68331;53.362;55.932;2023-04-12T07:33:55;100353.03;;;20.46;14.25
78932;BME280;68331;53.362;55.932;2023-04-12T07:36:21;100358.13;;;20.36;14.72
78932;BME280;68331;53.362;55.932;2023-04-12T07:38:47;100348.66;;;20.31;14.78
78932;BME280;68331;53.362;55.932;2023-04-12T07:41:16;100347.91;;;20.14;14.52
78932;BME280;68331;53.362;55.932;2023-04-12T07:43:43;100346.63;;;20.34;14.42
78932;BME280;68331;53.362;55.932;2023-04-12T07:46:10;100342.63;;;20.27;14.74
78932;BME280;68331;53.362;55.932;2023-04-12T07:48:36;100337.19;;;20.14;14.60
78932;BME280;68331;53.362;55.932;2023-04-12T07:51:02;100342.63;;;20.13;14.48
78932;BME280;68331;53.362;55.932;2023-04-12T07:53:28;100344.47;;;19.98;14.75
78932;BME280;68331;53.362;55.932;2023-04-12T07:55:55;100342.75;;;19.97;14.55
78932;BME280;68331;53.362;55.932;2023-04-12T07:58:22;100329.16;;;20.00;14.24
78932;BME280;68331;53.362;55.932;2023-04-12T08:00:48;100326.75;;;20.24;14.14
78932;BME280;68331;53.362;55.932;2023-04-12T08:03:16;100319.47;;;20.26;14.35
78932;BME280;68331;53.362;55.932;2023-04-12T08:05:43;100315.03;;;19.98;14.95
78932;BME280;68331;53.362;55.932;2023-04-12T08:08:10;100313.88;;;19.88;15.02
78932;BME280;68331;53.362;55.932;2023-04-12T08:10:37;100317.66;;;19.55;15.31
78932;BME280;68331;53.362;55.932;2023-04-12T08:13:04;100305.19;;;19.70;14.34
78932;BME280;68331;53.362;55.932;2023-04-12T08:15:30;100307.91;;;19.97;14.28
78932;BME280;68331;53.362;55.932;2023-04-12T08:17:56;100305.44;;;20.08;14.30
78932;BME280;68331;53.362;55.932;2023-04-12T08:20:22;100300.00;;;19.95;14.42
78932;BME280;68331;53.362;55.932;2023-04-12T08:22:48;100293.97;;;19.78;14.60
78932;BME280;68331;53.362;55.932;2023-04-12T08:25:15;100297.22;;;19.68;14.75
78932;BME280;68331;53.362;55.932;2023-04-12T08:27:42;100291.09;;;19.81;14.94
78932;BME280;68331;53.362;55.932;2023-04-12T08:30:09;100291.56;;;19.87;14.71
78932;BME280;68331;53.362;55.932;2023-04-12T08:32:35;100286.28;;;20.14;14.68
78932;BME280;68331;53.362;55.932;2023-04-12T08:35:05;100275.13;;;20.35;14.22
78932;BME280;68331;53.362;55.932;2023-04-12T08:37:31;100283.81;;;20.11;14.54
78932;BME280;68331;53.362;55.932;2023-04-12T08:40:04;100282.59;;;19.88;14.84
78932;BME280;68331;53.362;55.932;2023-04-12T08:42:33;100276.75;;;19.96;14.88
78932;BME280;68331;53.362;55.932;2023-04-12T08:45:04;100265.78;;;20.28;14.86
78932;BME280;68331;53.362;55.932;2023-04-12T08:47:36;100272.81;;;20.43;14.48
78932;BME280;68331;53.362;55.932;2023-04-12T08:50:02;100263.09;;;20.28;14.57
78932;BME280;68331;53.362;55.932;2023-04-12T08:52:32;100265.00;;;20.26;14.30
78932;BME280;68331;53.362;55.932;2023-04-12T08:55:04;100266.38;;;20.18;14.66
78932;BME280;68331;53.362;55.932;2023-04-12T08:57:31;100264.19;;;20.38;14.69
78932;BME280;68331;53.362;55.932;2023-04-12T09:00:01;100253.16;;;20.30;14.48
78932;BME280;68331;53.362;55.932;2023-04-12T09:02:28;100255.22;;;20.39;14.41
78932;BME280;68331;53.362;55.932;2023-04-12T09:04:54;100251.72;;;20.51;14.54
78932;BME280;68331;53.362;55.932;2023-04-12T09:07:21;100252.63;;;20.52;14.49
78932;BME280;68331;53.362;55.932;2023-04-12T09:09:48;100252.75;;;20.63;14.09
78932;BME280;68331;53.362;55.932;2023-04-12T09:12:15;100251.25;;;20.59;13.82
78932;BME280;68331;53.362;55.932;2023-04-12T09:14:41;100253.81;;;20.60;14.10
78932;BME280;68331;53.362;55.932;2023-04-12T09:19:48;100251.13;;;20.60;14.38
78932;BME280;68331;53.362;55.932;2023-04-12T09:22:14;100247.72;;;20.58;14.08
78932;BME280;68331;53.362;55.932;2023-04-12T09:24:49;100240.09;;;20.38;14.16
78932;BME280;68331;53.362;55.932;2023-04-12T09:27:18;100244.25;;;20.42;14.72
78932;BME280;68331;53.362;55.932;2023-04-12T09:29:47;100236.28;;;20.28;14.64
78932;BME280;68331;53.362;55.932;2023-04-12T09:32:25;100223.22;;;20.23;14.67
78932;BME280;68331;53.362;55.932;2023-04-12T09:34:56;100234.13;;;20.20;14.56
78932;BME280;68331;53.362;55.932;2023-04-12T09:37:23;100226.03;;;20.34;14.37
78932;BME280;68331;53.362;55.932;2023-04-12T09:39:59;100220.97;;;20.57;14.34
78932;BME280;68331;53.362;55.932;2023-04-12T09:42:26;100219.94;;;20.59;14.39
78932;BME280;68331;53.362;55.932;2023-04-12T09:44:53;100215.63;;;20.57;14.37
78932;BME280;68331;53.362;55.932;2023-04-12T09:47:40;100216.81;;;20.65;14.34
78932;BME280;68331;53.362;55.932;2023-04-12T09:50:07;100208.03;;;20.76;14.29
78932;BME280;68331;53.362;55.932;2023-04-12T09:52:37;100214.28;;;20.89;14.12
78932;BME280;68331;53.362;55.932;2023-04-12T09:55:10;100215.47;;;20.85;13.81
78932;BME280;68331;53.362;55.932;2023-04-12T09:57:41;100206.13;;;20.78;14.28
78932;BME280;68331;53.362;55.932;2023-04-12T10:00:09;100200.53;;;20.69;14.23
78932;BME280;68331;53.362;55.932;2023-04-12T10:02:46;100194.41;;;20.66;14.12
78932;BME280;68331;53.362;55.932;2023-04-12T10:05:15;100189.19;;;20.51;14.37
78932;BME280;68331;53.362;55.932;2023-04-12T10:07:42;100185.31;;;20.42;14.57
78932;BME280;68331;53.362;55.932;2023-04-12T10:10:13;100186.03;;;20.31;14.57
78932;BME280;68331;53.362;55.932;2023-04-12T10:12:42;100182.38;;;20.32;14.56
78932;BME280;68331;53.362;55.932;2023-04-12T10:15:11;100178.00;;;20.31;14.44
78932;BME280;68331;53.362;55.932;2023-04-12T10:17:46;100173.84;;;20.40;14.57
78932;BME280;68331;53.362;55.932;2023-04-12T10:20:13;100168.22;;;20.57;14.42
78932;BME280;68331;53.362;55.932;2023-04-12T10:22:47;100166.50;;;20.56;14.47
78932;BME280;68331;53.362;55.932;2023-04-12T10:25:16;100161.09;;;20.43;14.59
78932;BME280;68331;53.362;55.932;2023-04-12T10:27:44;100166.75;;;20.26;14.79
78932;BME280;68331;53.362;55.932;2023-04-12T10:30:29;100161.47;;;20.25;14.77
78932;BME280;68331;53.362;55.932;2023-04-12T10:38:13;100138.94;;;20.54;14.36
78932;BME280;68331;53.362;55.932;2023-04-12T10:43:35;100142.13;;;20.47;14.39
78932;BME280;68331;53.362;55.932;2023-04-12T10:46:01;100145.88;;;20.44;14.42
78932;BME280;68331;53.362;55.932;2023-04-12T10:48:35;100133.84;;;20.37;14.02
78932;BME280;68331;53.362;55.932;2023-04-12T10:51:21;100129.59;;;20.47;14.24
78932;BME280;68331;53.362;55.932;2023-04-12T10:56:46;100123.16;;;20.50;14.08
78932;BME280;68331;53.362;55.932;2023-04-12T10:59:21;100125.06;;;20.35;14.19
78932;BME280;68331;53.362;55.932;2023-04-12T11:04:32;100114.84;;;20.14;14.55
78932;BME280;68331;53.362;55.932;2023-04-12T11:07:21;100110.44;;;20.13;14.13
78932;BME280;68331;53.362;55.932;2023-04-12T11:09:48;100110.34;;;20.15;14.14
78932;BME280;68331;53.362;55.932;2023-04-12T11:12:31;100118.13;;;20.05;14.26
78932;BME280;68331;53.362;55.932;2023-04-12T11:14:59;100110.88;;;20.07;14.61
78932;BME280;68331;53.362;55.932;2023-04-12T11:17:30;100102.50;;;20.12;14.30
78932;BME280;68331;53.362;55.932;2023-04-12T11:20:00;100117.84;;;20.23;14.60
78932;BME280;68331;53.362;55.932;2023-04-12T11:22:29;100107.03;;;20.24;14.56
78932;BME280;68331;53.362;55.932;2023-04-12T11:24:57;100114.72;;;20.16;14.86
78932;BME280;68331;53.362;55.932;2023-04-12T11:27:25;100114.72;;;20.16;14.93
78932;BME280;68331;53.362;55.932;2023-04-12T11:29:54;100112.38;;;20.11;14.65
78932;BME280;68331;53.362;55.932;2023-04-12T11:32:22;100101.16;;;19.92;14.43
78932;BME280;68331;53.362;55.932;2023-04-12T11:34:49;100104.41;;;19.70;14.62
78932;BME280;68331;53.362;55.932;2023-04-12T11:37:17;100099.84;;;19.43;14.59
78932;BME280;68331;53.362;55.932;2023-04-12T11:39:44;100090.03;;;19.29;14.99
78932;BME280;68331;53.362;55.932;2023-04-12T11:42:18;100084.47;;;19.33;15.04
78932;BME280;68331;53.362;55.932;2023-04-12T11:44:46;100088.06;;;19.46;15.27
78932;BME280;68331;53.362;55.932;2023-04-12T11:47:16;100090.06;;;19.57;15.02
78932;BME280;68331;53.362;55.932;2023-04-12T11:49:46;100087.09;;;19.76;14.91
78932;BME280;68331;53.362;55.932;2023-04-12T11:52:14;100089.44;;;19.80;14.68
78932;BME280;68331;53.362;55.932;2023-04-12T11:54:46;100086.13;;;19.77;14.61
78932;BME280;68331;53.362;55.932;2023-04-12T11:57:14;100082.66;;;19.74;14.63
78932;BME280;68331;53.362;55.932;2023-04-12T11:59:43;100085.25;;;19.62;14.27
78932;BME280;68331;53.362;55.932;2023-04-12T12:02:09;100079.81;;;19.63;14.29
78932;BME280;68331;53.362;55.932;2023-04-12T12:04:35;100074.56;;;19.76;14.59
78932;BME280;68331;53.362;55.932;2023-04-12T12:07:02;100070.28;;;19.86;14.78
78932;BME280;68331;53.362;55.932;2023-04-12T12:09:30;100072.66;;;19.91;14.74
78932;BME280;68331;53.362;55.932;2023-04-12T12:11:56;100071.19;;;20.00;14.61
78932;BME280;68331;53.362;55.932;2023-04-12T12:14:22;100062.28;;;19.99;14.63
78932;BME280;68331;53.362;55.932;2023-04-12T12:16:55;100071.16;;;19.87;14.81
78932;BME280;68331;53.362;55.932;2023-04-12T12:19:32;100063.84;;;19.62;15.11
78932;BME280;68331;53.362;55.932;2023-04-12T12:22:17;100074.16;;;19.41;14.92
78932;BME280;68331;53.362;55.932;2023-04-12T12:24:48;100066.81;;;19.30;15.19
78932;BME280;68331;53.362;55.932;2023-04-12T12:27:22;100067.88;;;19.27;14.92
78932;BME280;68331;53.362;55.932;2023-04-12T12:29:50;100074.56;;;19.20;14.82
78932;BME280;68331;53.362;55.932;2023-04-12T12:32:18;100062.06;;;19.21;14.93
78932;BME280;68331;53.362;55.932;2023-04-12T12:34:52;100069.53;;;19.16;15.40
78932;BME280;68331;53.362;55.932;2023-04-12T12:37:19;100071.22;;;19.17;15.22
78932;BME280;68331;53.362;55.932;2023-04-12T12:42:34;100061.66;;;19.27;15.31
78932;BME280;68331;53.362;55.932;2023-04-12T12:45:01;100062.06;;;19.21;15.39
78932;BME280;68331;53.362;55.932;2023-04-12T12:47:29;100066.84;;;19.16;15.47
78932;BME280;68331;53.362;55.932;2023-04-12T12:49:56;100063.44;;;18.99;15.08
78932;BME280;68331;53.362;55.932;2023-04-12T12:52:23;100071.81;;;18.79;15.56
78932;BME280;68331;53.362;55.932;2023-04-12T12:54:48;100051.72;;;18.73;15.55
78932;BME280;68331;53.362;55.932;2023-04-12T12:57:16;100062.41;;;18.73;15.43
78932;BME280;68331;53.362;55.932;2023-04-12T12:59:42;100065.41;;;18.67;15.61
78932;BME280;68331;53.362;55.932;2023-04-12T13:02:08;100056.63;;;18.51;15.69
78932;BME280;68331;53.362;55.932;2023-04-12T13:04:34;100053.47;;;18.44;16.04
78932;BME280;68331;53.362;55.932;2023-04-12T13:07:00;100058.72;;;18.46;15.87
78932;BME280;68331;53.362;55.932;2023-04-12T13:09:26;100058.91;;;18.43;16.15
78932;BME280;68331;53.362;55.932;2023-04-12T13:11:52;100057.84;;;18.45;16.20
78932;BME280;68331;53.362;55.932;2023-04-12T13:14:18;100060.59;;;18.44;16.06
78932;BME280;68331;53.362;55.932;2023-04-12T13:16:44;100057.25;;;18.40;15.94
78932;BME280;68331;53.362;55.932;2023-04-12T13:19:12;100062.22;;;18.32;16.18
78932;BME280;68331;53.362;55.932;2023-04-12T13:21:39;100063.16;;;18.31;16.12
78932;BME280;68331;53.362;55.932;2023-04-12T13:24:05;100060.00;;;18.24;16.12